Time;durP1;ratioP1;P1;durP2;ratioP2;P2;SDS_P1;SDS_P2;PMS_P1;PMS_P2;Temp;Humidity;BMP_temperature;BMP_pressure;BME280_temperature;BME280_humidity;BME280_pressure;Samples;Min_cycle;Max_cycle;Signal;HPM_P1;HPM_P2
2023/05/28 00:00:50;;;;;;;12.33;8.00;;;11.80;92.80;;;;;;5011610;28;20453;-68
2023/05/28 00:03:20;;;;;;;10.80;8.73;;;11.80;92.20;;;;;;5011117;28;20479;-68
2023/05/28 00:05:48;;;;;;;12.20;7.43;;;11.80;96.20;;;;;;5011794;28;20445;-68
2023/05/28 00:08:16;;;;;;;12.20;7.67;;;11.80;96.60;;;;;;5011541;28;20509;-68
2023/05/28 00:10:44;;;;;;;11.70;9.17;;;11.70;95.40;;;;;;5011739;28;20452;-68
2023/05/28 00:13:12;;;;;;;9.87;8.10;;;11.60;96.50;;;;;;5011324;28;20445;-68
2023/05/28 00:15:40;;;;;;;12.40;7.53;;;11.60;96.70;;;;;;5011644;28;20508;-68
2023/05/28 00:18:11;;;;;;;11.70;6.90;;;11.50;96.10;;;;;;5011732;28;20465;-69
2023/05/28 00:20:41;;;;;;;9.80;6.70;;;11.50;94.60;;;;;;5011823;28;20450;-68
2023/05/28 00:23:09;;;;;;;11.43;6.93;;;11.50;94.00;;;;;;5011091;28;20444;-68
2023/05/28 00:25:38;;;;;;;11.63;7.97;;;11.40;93.80;;;;;;5011496;28;20521;-68
2023/05/28 00:28:06;;;;;;;11.47;8.20;;;11.30;96.20;;;;;;5011473;28;20482;-68
2023/05/28 00:30:34;;;;;;;9.70;7.47;;;11.30;97.30;;;;;;5010938;28;20882;-69
2023/05/28 00:33:01;;;;;;;15.07;7.37;;;11.20;97.00;;;;;;5011083;28;20451;-68
2023/05/28 00:35:31;;;;;;;8.90;7.40;;;11.10;96.10;;;;;;5011473;28;20507;-68
2023/05/28 00:37:59;;;;;;;9.83;8.23;;;11.00;97.40;;;;;;5011090;28;20537;-69
2023/05/28 00:40:27;;;;;;;12.43;8.40;;;11.00;96.00;;;;;;5011351;28;20450;-69
2023/05/28 00:42:55;;;;;;;9.23;8.40;;;10.90;96.00;;;;;;5010926;28;20505;-69
2023/05/28 00:45:23;;;;;;;12.33;8.60;;;10.90;97.20;;;;;;5010477;28;20451;-69
2023/05/28 00:47:51;;;;;;;11.87;7.60;;;10.90;98.60;;;;;;5010673;28;20476;-69
2023/05/28 00:50:20;;;;;;;14.87;8.10;;;10.90;98.70;;;;;;5010543;28;20443;-69
2023/05/28 00:52:51;;;;;;;14.27;9.83;;;10.80;97.60;;;;;;5010275;28;20443;-69
2023/05/28 00:55:20;;;;;;;12.20;8.40;;;10.80;97.00;;;;;;5010495;28;20474;-69
2023/05/28 00:57:49;;;;;;;12.70;8.60;;;10.70;97.20;;;;;;5010672;28;20898;-69
2023/05/28 01:00:18;;;;;;;14.30;8.67;;;10.70;99.00;;;;;;5010674;28;20450;-69
2023/05/28 01:02:46;;;;;;;11.30;8.80;;;10.60;98.30;;;;;;5010416;28;20889;-69
2023/05/28 01:05:15;;;;;;;12.87;8.50;;;10.70;98.80;;;;;;5009825;28;20441;-68
2023/05/28 01:07:43;;;;;;;11.00;8.50;;;10.60;99.20;;;;;;5010606;28;20530;-69
2023/05/28 01:10:12;;;;;;;13.97;7.93;;;10.50;99.00;;;;;;5010249;28;20455;-69
2023/05/28 01:12:43;;;;;;;17.37;7.83;;;10.50;99.90;;;;;;5010166;28;20813;-69
2023/05/28 01:15:12;;;;;;;12.50;8.00;;;10.40;98.10;;;;;;5010287;28;20513;-69
2023/05/28 01:17:40;;;;;;;13.27;7.80;;;10.30;99.70;;;;;;5010156;28;20475;-69
2023/05/28 01:20:13;;;;;;;16.40;8.30;;;10.30;99.90;;;;;;5010225;28;20525;-69
2023/05/28 01:22:47;;;;;;;8.30;7.00;;;10.20;99.90;;;;;;5010205;28;20438;-69
2023/05/28 01:25:18;;;;;;;9.47;7.47;;;10.30;99.90;;;;;;5010180;28;20461;-69
2023/05/28 01:27:46;;;;;;;14.63;8.53;;;10.10;99.90;;;;;;5010125;28;20466;-69
2023/05/28 01:30:14;;;;;;;9.90;7.70;;;10.10;99.90;;;;;;5009924;28;20931;-69
2023/05/28 01:32:42;;;;;;;10.77;7.50;;;10.10;99.70;;;;;;5009643;28;20990;-68
2023/05/28 01:35:11;;;;;;;13.20;10.07;;;10.10;98.80;;;;;;5010010;28;20544;-68
2023/05/28 01:37:45;;;;;;;13.97;8.23;;;10.20;99.90;;;;;;5009922;28;20474;-69
2023/05/28 01:40:14;;;;;;;12.40;8.10;;;10.10;99.90;;;;;;5010020;28;20450;-69
2023/05/28 01:42:45;;;;;;;10.10;7.90;;;10.20;99.90;;;;;;5009778;28;20457;-69
2023/05/28 01:45:14;;;;;;;9.47;7.50;;;10.10;99.70;;;;;;5009784;28;20442;-69
2023/05/28 01:47:43;;;;;;;14.70;9.20;;;10.00;99.40;;;;;;5009806;28;20530;-69
2023/05/28 01:50:11;;;;;;;9.27;7.93;;;10.00;99.70;;;;;;5009783;28;20447;-69
2023/05/28 01:52:40;;;;;;;11.97;8.70;;;10.10;99.90;;;;;;5009807;28;20481;-69
2023/05/28 01:55:11;;;;;;;11.53;7.70;;;10.00;99.70;;;;;;5009815;28;20485;-69
2023/05/28 01:57:39;;;;;;;13.07;8.37;;;10.00;99.90;;;;;;5009756;28;20477;-69
2023/05/28 02:00:11;;;;;;;14.43;7.80;;;9.90;99.90;;;;;;5009755;28;20511;-69
2023/05/28 02:02:40;;;;;;;10.67;8.33;;;9.80;99.90;;;;;;5008671;28;20803;-68
2023/05/28 02:05:08;;;;;;;12.10;8.80;;;9.90;99.90;;;;;;5009713;28;20946;-69
2023/05/28 02:07:36;;;;;;;14.43;8.87;;;9.90;99.90;;;;;;5009466;28;20553;-69
2023/05/28 02:10:06;;;;;;;13.00;8.43;;;10.00;99.90;;;;;;5009826;28;20470;-69
2023/05/28 02:12:34;;;;;;;11.93;8.40;;;9.90;99.90;;;;;;5009269;28;20441;-68
2023/05/28 02:15:02;;;;;;;14.00;8.70;;;9.90;99.90;;;;;;5009603;28;20453;-69
2023/05/28 02:17:32;;;;;;;16.87;9.63;;;9.90;99.90;;;;;;5012027;28;20444;-69
2023/05/28 02:20:00;;;;;;;10.20;8.50;;;9.80;99.90;;;;;;5013481;28;20461;-69
2023/05/28 02:22:28;;;;;;;15.37;9.23;;;9.70;99.90;;;;;;5012953;28;20524;-69
2023/05/28 02:24:56;;;;;;;15.43;10.20;;;9.60;99.90;;;;;;5013069;28;20573;-69
2023/05/28 02:27:24;;;;;;;12.80;9.57;;;9.60;99.90;;;;;;5012920;28;20449;-69
2023/05/28 02:29:52;;;;;;;15.73;9.57;;;9.70;99.90;;;;;;5013193;28;20886;-69
2023/05/28 02:32:20;;;;;;;11.50;8.17;;;9.60;99.90;;;;;;5012989;28;20456;-69
2023/05/28 02:34:49;;;;;;;14.63;8.67;;;9.50;99.90;;;;;;5012929;28;20451;-69
2023/05/28 02:37:21;;;;;;;14.43;8.53;;;9.50;99.90;;;;;;5012741;28;20944;-69
2023/05/28 02:39:49;;;;;;;11.33;8.27;;;9.40;99.90;;;;;;5013191;28;20446;-69
2023/05/28 02:42:17;;;;;;;16.07;9.30;;;9.30;99.90;;;;;;5012953;28;20445;-69
2023/05/28 02:44:45;;;;;;;14.10;9.17;;;9.40;99.90;;;;;;5012590;28;20440;-69
2023/05/28 02:47:13;;;;;;;11.60;8.30;;;9.60;99.90;;;;;;5012854;28;20429;-68
2023/05/28 02:49:40;;;;;;;10.90;8.07;;;9.60;99.90;;;;;;5012574;28;21067;-69
2023/05/28 02:52:10;;;;;;;10.03;7.60;;;9.50;99.90;;;;;;5012598;28;20502;-68
2023/05/28 02:54:38;;;;;;;14.40;8.30;;;9.50;99.90;;;;;;5012542;28;20454;-68
2023/05/28 02:57:06;;;;;;;10.40;8.50;;;9.40;99.90;;;;;;5012626;28;20918;-69
2023/05/28 02:59:34;;;;;;;14.20;8.73;;;9.30;99.90;;;;;;5012552;28;20472;-68
2023/05/28 03:02:02;;;;;;;10.97;8.47;;;9.30;99.90;;;;;;5012639;28;20507;-69
2023/05/28 03:04:30;;;;;;;15.87;8.30;;;9.30;99.90;;;;;;5012092;28;20449;-69
2023/05/28 03:06:57;;;;;;;15.70;8.57;;;9.30;99.90;;;;;;5012454;28;20451;-69
2023/05/28 03:09:27;;;;;;;14.87;8.90;;;9.50;99.90;;;;;;5012322;28;20469;-69
2023/05/28 03:11:55;;;;;;;15.57;9.07;;;9.50;99.90;;;;;;5012350;28;20441;-69
2023/05/28 03:14:23;;;;;;;10.40;8.57;;;9.50;99.90;;;;;;5012025;28;20449;-69
2023/05/28 03:16:51;;;;;;;11.40;8.30;;;9.50;99.90;;;;;;5012189;28;21284;-69
2023/05/28 03:19:20;;;;;;;15.03;9.47;;;9.30;99.90;;;;;;5012206;28;20461;-69
2023/05/28 03:21:48;;;;;;;12.20;8.33;;;9.10;99.90;;;;;;5012560;28;20444;-68
2023/05/28 03:24:16;;;;;;;10.73;8.97;;;9.10;99.90;;;;;;5012197;28;20455;-69
2023/05/28 03:26:45;;;;;;;13.80;8.33;;;9.10;99.90;;;;;;5012462;28;20537;-69
2023/05/28 03:29:13;;;;;;;13.50;8.77;;;9.10;99.90;;;;;;5011283;28;20470;-69
2023/05/28 03:31:45;;;;;;;12.77;9.40;;;9.10;99.90;;;;;;5011907;28;20444;-69
2023/05/28 03:34:14;;;;;;;13.17;8.73;;;9.10;99.90;;;;;;5011993;28;20438;-69
2023/05/28 03:36:42;;;;;;;11.53;9.03;;;9.10;99.90;;;;;;5011936;28;20858;-69
2023/05/28 03:39:11;;;;;;;12.17;8.47;;;8.90;99.90;;;;;;5011970;28;20467;-69
2023/05/28 03:41:39;;;;;;;11.10;8.67;;;9.00;99.90;;;;;;5011743;28;20455;-69
2023/05/28 03:44:09;;;;;;;14.90;9.40;;;9.00;99.90;;;;;;5011612;28;20461;-69
2023/05/28 03:46:37;;;;;;;13.63;8.67;;;8.90;99.90;;;;;;5011962;28;20449;-69
2023/05/28 03:49:05;;;;;;;11.37;8.83;;;8.90;99.90;;;;;;5011759;28;20467;-69
2023/05/28 03:51:33;;;;;;;13.40;8.27;;;8.90;99.90;;;;;;5011655;28;20883;-69
2023/05/28 03:54:01;;;;;;;13.43;8.10;;;8.90;99.90;;;;;;5011324;28;20476;-69
2023/05/28 03:56:30;;;;;;;14.80;9.37;;;8.90;99.90;;;;;;5011440;28;20514;-69
2023/05/28 03:58:58;;;;;;;11.50;8.77;;;9.00;99.90;;;;;;5011581;28;20613;-69
2023/05/28 04:01:27;;;;;;;9.40;8.40;;;9.00;99.90;;;;;;5011754;28;20473;-69
2023/05/28 04:03:55;;;;;;;15.40;9.30;;;9.10;99.90;;;;;;5011381;28;20532;-69
2023/05/28 04:06:24;;;;;;;11.40;8.73;;;9.20;99.90;;;;;;5011675;28;20535;-69
2023/05/28 04:08:53;;;;;;;13.33;8.93;;;9.30;99.90;;;;;;5011197;28;20463;-69
2023/05/28 04:11:24;;;;;;;10.50;8.90;;;9.40;99.90;;;;;;5011286;28;20458;-69
2023/05/28 04:13:52;;;;;;;11.93;9.10;;;9.40;99.90;;;;;;5011139;28;20442;-69
2023/05/28 04:16:22;;;;;;;11.87;8.97;;;9.40;99.90;;;;;;5011106;28;20527;-69
2023/05/28 04:18:52;;;;;;;14.87;9.90;;;9.50;99.90;;;;;;5010919;28;20483;-69
2023/05/28 04:21:22;;;;;;;9.87;8.33;;;9.60;99.90;;;;;;5011223;28;20450;-69
2023/05/28 04:23:51;;;;;;;11.83;8.70;;;9.60;99.90;;;;;;5010502;28;20955;-69
2023/05/28 04:26:22;;;;;;;13.27;8.50;;;9.70;99.90;;;;;;5011066;28;20818;-69
2023/05/28 04:28:50;;;;;;;14.80;9.37;;;9.70;99.90;;;;;;5010994;28;20835;-69
2023/05/28 04:31:18;;;;;;;13.00;8.77;;;9.80;99.90;;;;;;5010839;28;20940;-69
2023/05/28 04:33:47;;;;;;;10.03;8.77;;;9.80;99.90;;;;;;5010686;28;20449;-69
2023/05/28 04:36:16;;;;;;;10.07;9.00;;;9.90;99.90;;;;;;5010765;28;20899;-68
2023/05/28 04:38:45;;;;;;;10.90;8.50;;;10.00;99.90;;;;;;5010977;28;20454;-69
2023/05/28 04:41:14;;;;;;;15.10;7.60;;;10.00;99.90;;;;;;5010589;28;20519;-69
2023/05/28 04:43:42;;;;;;;11.80;8.17;;;10.00;99.90;;;;;;5010453;28;20441;-69
2023/05/28 04:46:10;;;;;;;8.87;7.47;;;10.20;99.90;;;;;;5010756;28;20439;-69
2023/05/28 04:48:38;;;;;;;15.53;7.60;;;10.20;99.90;;;;;;5010638;28;20490;-69
2023/05/28 04:51:06;;;;;;;10.30;8.60;;;10.30;99.90;;;;;;5010415;28;20509;-69
2023/05/28 04:53:36;;;;;;;11.90;9.37;;;10.40;99.90;;;;;;5010307;28;20446;-69
2023/05/28 04:56:05;;;;;;;13.87;8.60;;;10.30;99.90;;;;;;5010496;28;20497;-69
2023/05/28 04:58:34;;;;;;;8.70;7.80;;;10.50;99.90;;;;;;5010347;28;20490;-69
2023/05/28 05:01:02;;;;;;;9.97;8.13;;;10.50;99.90;;;;;;5010428;28;20459;-69
2023/05/28 05:03:32;;;;;;;10.43;8.50;;;10.60;99.90;;;;;;5010155;28;20444;-69
2023/05/28 05:06:00;;;;;;;12.93;9.00;;;10.70;99.90;;;;;;5010650;28;20443;-69
2023/05/28 05:08:28;;;;;;;13.70;9.10;;;10.70;99.90;;;;;;5010041;28;20466;-69
2023/05/28 05:10:57;;;;;;;13.00;9.43;;;10.90;99.90;;;;;;5010308;28;20449;-69
2023/05/28 05:13:25;;;;;;;11.80;7.70;;;10.90;99.90;;;;;;5009959;28;20458;-69
2023/05/28 05:15:53;;;;;;;13.63;8.83;;;10.90;99.90;;;;;;5010024;28;20912;-69
2023/05/28 05:18:22;;;;;;;13.57;9.00;;;11.00;99.90;;;;;;5010106;28;20845;-69
2023/05/28 05:20:50;;;;;;;10.07;8.23;;;11.10;99.90;;;;;;5010394;28;20453;-69
2023/05/28 05:23:18;;;;;;;14.20;10.37;;;11.20;99.90;;;;;;5010006;28;20449;-69
2023/05/28 05:25:46;;;;;;;13.10;9.13;;;11.20;99.90;;;;;;5010011;28;20479;-69
2023/05/28 05:28:15;;;;;;;11.63;8.50;;;11.40;99.90;;;;;;5009891;28;20471;-69
2023/05/28 05:30:43;;;;;;;12.43;8.60;;;11.30;99.90;;;;;;5010177;28;20471;-68
2023/05/28 05:33:11;;;;;;;13.20;9.40;;;11.60;99.90;;;;;;5010000;28;20547;-68
2023/05/28 05:35:39;;;;;;;11.20;8.90;;;11.60;99.90;;;;;;5010194;28;20464;-68
2023/05/28 05:38:07;;;;;;;11.03;8.40;;;11.80;99.70;;;;;;5009922;28;20582;-68
2023/05/28 05:40:35;;;;;;;12.90;8.77;;;11.90;98.70;;;;;;5009983;28;20477;-68
2023/05/28 05:43:03;;;;;;;10.93;9.57;;;11.90;99.00;;;;;;5009842;28;20448;-69
2023/05/28 05:45:32;;;;;;;12.57;9.57;;;12.00;99.20;;;;;;5010438;28;20451;-68
2023/05/28 05:48:00;;;;;;;10.47;7.90;;;12.20;98.80;;;;;;5010319;28;20496;-69
2023/05/28 05:50:28;;;;;;;17.83;8.80;;;12.20;98.90;;;;;;5010131;28;20491;-69
2023/05/28 05:52:59;;;;;;;11.83;9.47;;;12.30;98.20;;;;;;5012775;28;20565;-69
2023/05/28 05:55:27;;;;;;;11.63;8.73;;;12.40;96.20;;;;;;5014139;28;20496;-68
2023/05/28 05:57:56;;;;;;;10.03;8.77;;;12.50;94.50;;;;;;5013957;28;20485;-68
2023/05/28 06:00:24;;;;;;;11.07;7.67;;;12.60;93.60;;;;;;5014045;28;20449;-68
2023/05/28 06:02:53;;;;;;;10.70;8.10;;;12.60;93.60;;;;;;5013549;28;20884;-69
2023/05/28 06:05:21;;;;;;;9.53;7.73;;;12.70;94.00;;;;;;5013677;28;20453;-69
2023/05/28 06:07:49;;;;;;;12.63;8.00;;;12.70;94.10;;;;;;5013429;28;20468;-69
2023/05/28 06:10:17;;;;;;;10.07;7.90;;;12.90;95.60;;;;;;5013581;28;20497;-69
2023/05/28 06:12:45;;;;;;;8.97;7.60;;;13.00;93.60;;;;;;5013466;28;20445;-69
2023/05/28 06:15:13;;;;;;;9.60;6.97;;;13.10;93.80;;;;;;5013739;28;20866;-69
2023/05/28 06:17:43;;;;;;;8.80;5.97;;;13.20;91.60;;;;;;5013285;28;20531;-69
2023/05/28 06:20:13;;;;;;;15.10;6.13;;;13.40;89.90;;;;;;5013378;28;20456;-69
2023/05/28 06:22:41;;;;;;;9.90;6.57;;;13.50;91.00;;;;;;5013074;28;20449;-69
2023/05/28 06:25:09;;;;;;;10.37;6.50;;;13.60;91.20;;;;;;5013495;28;20441;-69
2023/05/28 06:27:37;;;;;;;7.50;6.37;;;13.70;92.10;;;;;;5013343;28;20503;-69
2023/05/28 06:30:06;;;;;;;7.10;5.30;;;13.80;91.10;;;;;;5013238;28;20441;-69
2023/05/28 06:32:34;;;;;;;10.50;6.23;;;14.00;89.60;;;;;;5012964;28;20442;-69
2023/05/28 06:35:02;;;;;;;9.00;5.90;;;14.10;84.20;;;;;;5012955;28;20445;-69
2023/05/28 06:37:32;;;;;;;10.30;6.10;;;14.20;83.30;;;;;;5012811;28;20481;-69
2023/05/28 06:40:00;;;;;;;8.10;5.93;;;14.40;77.00;;;;;;5013318;28;20446;-69
2023/05/28 06:42:28;;;;;;;10.47;5.73;;;14.50;77.40;;;;;;5012889;28;20994;-69
2023/05/28 06:44:56;;;;;;;6.73;5.57;;;14.50;77.20;;;;;;5012757;28;20556;-68
2023/05/28 06:47:25;;;;;;;7.80;4.80;;;14.70;78.50;;;;;;5012681;28;20504;-68
2023/05/28 06:49:53;;;;;;;8.57;5.83;;;14.80;79.70;;;;;;5013015;28;20479;-68
2023/05/28 06:52:21;;;;;;;6.67;4.83;;;15.00;78.20;;;;;;5012948;28;20452;-68
2023/05/28 06:54:50;;;;;;;6.47;4.90;;;15.20;74.10;;;;;;5013008;28;20448;-68
2023/05/28 06:57:18;;;;;;;7.80;5.07;;;15.30;70.50;;;;;;5013382;28;20484;-68
2023/05/28 06:59:46;;;;;;;9.27;5.97;;;15.50;70.70;;;;;;5012962;28;20507;-68
2023/05/28 07:02:14;;;;;;;9.53;5.00;;;15.60;69.70;;;;;;5012508;28;20446;-69
2023/05/28 07:04:43;;;;;;;8.27;5.40;;;15.70;68.10;;;;;;5012252;28;20447;-68
2023/05/28 07:07:11;;;;;;;8.80;4.67;;;15.90;67.70;;;;;;5012397;28;20501;-68
2023/05/28 07:09:40;;;;;;;8.03;5.53;;;16.00;67.20;;;;;;5012271;28;20899;-68
2023/05/28 07:12:10;;;;;;;7.77;4.80;;;16.10;64.30;;;;;;5012292;28;20975;-68
2023/05/28 07:14:38;;;;;;;6.10;4.70;;;16.30;64.30;;;;;;5012219;28;20861;-68
2023/05/28 07:17:06;;;;;;;9.73;5.53;;;16.40;62.70;;;;;;5012418;28;20441;-68
2023/05/28 07:19:34;;;;;;;9.07;5.07;;;16.50;65.90;;;;;;5012361;28;20567;-68
2023/05/28 07:22:02;;;;;;;8.70;6.33;;;16.60;62.00;;;;;;5012087;28;20457;-69
2023/05/28 07:24:30;;;;;;;11.93;5.30;;;16.70;63.90;;;;;;5011856;28;20465;-69
2023/05/28 07:26:58;;;;;;;6.63;4.57;;;16.80;66.20;;;;;;5011895;28;20827;-68
2023/05/28 07:29:30;;;;;;;7.53;5.80;;;16.90;60.30;;;;;;5012175;28;20492;-68
2023/05/28 07:31:58;;;;;;;8.87;6.20;;;17.10;60.40;;;;;;5011760;28;20814;-68
2023/05/28 07:34:26;;;;;;;7.90;5.60;;;17.40;63.70;;;;;;5011855;28;20442;-68
2023/05/28 07:36:54;;;;;;;6.43;4.70;;;17.50;61.00;;;;;;5011810;28;20533;-68
2023/05/28 07:39:22;;;;;;;8.80;5.83;;;17.60;59.90;;;;;;5011699;28;20544;-68
2023/05/28 07:41:50;;;;;;;8.30;5.80;;;17.60;60.10;;;;;;5011796;28;20446;-69
2023/05/28 07:44:18;;;;;;;6.83;5.13;;;17.60;59.00;;;;;;5011592;28;20500;-68
2023/05/28 07:46:50;;;;;;;7.57;5.50;;;17.70;61.40;;;;;;5011591;28;20442;-69
2023/05/28 07:49:22;;;;;;;8.90;5.70;;;17.90;64.00;;;;;;5011553;28;20954;-69
2023/05/28 07:51:50;;;;;;;7.37;6.10;;;18.00;60.80;;;;;;5011619;28;20480;-69
2023/05/28 07:54:18;;;;;;;9.10;5.87;;;18.20;59.90;;;;;;5011145;28;20444;-69
2023/05/28 07:56:46;;;;;;;6.30;5.70;;;18.10;58.80;;;;;;5011798;28;21335;-69
2023/05/28 07:59:14;;;;;;;6.33;5.50;;;18.20;61.10;;;;;;5011238;28;20490;-69
2023/05/28 08:01:53;;;;;;;8.50;4.77;;;18.40;60.70;;;;;;5011657;28;20446;-69
2023/05/28 08:04:22;;;;;;;7.60;4.57;;;18.60;61.80;;;;;;5011461;28;20446;-69
2023/05/28 08:06:50;;;;;;;6.70;5.50;;;18.70;58.00;;;;;;5011719;28;20445;-69
2023/05/28 08:09:18;;;;;;;8.33;5.70;;;18.70;58.00;;;;;;5011747;28;20494;-69
2023/05/28 08:11:46;;;;;;;7.30;5.57;;;18.80;58.80;;;;;;5011261;28;20474;-69
2023/05/28 08:14:14;;;;;;;11.63;5.67;;;18.80;58.90;;;;;;5010428;28;20446;-70
2023/05/28 08:16:42;;;;;;;8.30;5.20;;;19.00;59.40;;;;;;5011181;28;20464;-69
2023/05/28 08:19:11;;;;;;;8.47;5.40;;;19.10;58.80;;;;;;5010754;28;20489;-69
2023/05/28 08:21:39;;;;;;;8.40;5.50;;;19.20;57.60;;;;;;5011062;28;20544;-69
2023/05/28 08:24:10;;;;;;;8.50;5.60;;;19.40;56.90;;;;;;5010783;28;20440;-69
2023/05/28 08:26:38;;;;;;;6.67;4.90;;;19.50;56.80;;;;;;5011604;28;20528;-69
2023/05/28 08:29:06;;;;;;;7.53;5.83;;;19.70;58.50;;;;;;5011640;28;20513;-69
2023/05/28 08:31:35;;;;;;;8.90;5.50;;;19.80;58.20;;;;;;5010683;28;20446;-69
2023/05/28 08:34:03;;;;;;;7.60;5.03;;;19.80;57.50;;;;;;5010854;28;20830;-69
2023/05/28 08:36:32;;;;;;;7.03;5.60;;;19.90;58.00;;;;;;5010859;28;20485;-69
2023/05/28 08:39:00;;;;;;;9.60;4.93;;;20.00;55.80;;;;;;5010745;28;20473;-69
2023/05/28 08:41:28;;;;;;;7.80;5.10;;;20.10;57.30;;;;;;5011063;28;20476;-69
2023/05/28 08:43:56;;;;;;;7.63;4.90;;;20.30;56.60;;;;;;5011051;28;20560;-70
2023/05/28 08:46:25;;;;;;;8.17;5.77;;;20.40;58.00;;;;;;5011093;28;20523;-69
2023/05/28 08:48:53;;;;;;;9.73;5.23;;;20.60;54.80;;;;;;5010805;28;20535;-69
2023/05/28 08:51:24;;;;;;;6.13;5.07;;;20.80;53.80;;;;;;5010802;28;21016;-68
2023/05/28 08:53:54;;;;;;;8.70;6.20;;;20.80;54.20;;;;;;5010467;28;20445;-68
2023/05/28 08:56:22;;;;;;;7.73;5.60;;;20.70;54.20;;;;;;5010743;28;20534;-69
2023/05/28 08:58:52;;;;;;;12.87;5.70;;;20.60;54.10;;;;;;5010583;28;20485;-70
2023/05/28 09:01:21;;;;;;;6.97;5.03;;;20.70;54.70;;;;;;5010677;28;20502;-68
2023/05/28 09:03:49;;;;;;;8.40;5.43;;;20.90;54.50;;;;;;5010400;28;20454;-68
2023/05/28 09:06:17;;;;;;;5.63;4.80;;;21.00;53.40;;;;;;5010600;28;20456;-68
2023/05/28 09:08:46;;;;;;;6.83;5.13;;;21.20;54.90;;;;;;5010366;28;20473;-68
2023/05/28 09:11:15;;;;;;;6.50;5.80;;;21.30;53.10;;;;;;5010375;28;20448;-68
2023/05/28 09:13:44;;;;;;;8.67;5.37;;;21.40;52.80;;;;;;5010403;28;20533;-68
2023/05/28 09:16:16;;;;;;;9.30;5.83;;;21.60;54.70;;;;;;5010748;28;20452;-68
2023/05/28 09:18:44;;;;;;;8.17;5.17;;;21.70;53.40;;;;;;5010646;28;20489;-68
2023/05/28 09:21:12;;;;;;;11.63;6.17;;;21.70;52.10;;;;;;5010721;28;20516;-68
2023/05/28 09:23:40;;;;;;;7.87;5.20;;;21.40;52.30;;;;;;5010566;28;20524;-69
2023/05/28 09:26:10;;;;;;;10.37;6.10;;;21.50;54.80;;;;;;5009532;28;20450;-69
2023/05/28 09:28:42;;;;;;;6.87;5.60;;;21.80;55.20;;;;;;5010671;28;21148;-69
2023/05/28 09:31:11;;;;;;;6.90;5.40;;;22.10;55.80;;;;;;5010561;28;20445;-68
2023/05/28 09:33:43;;;;;;;6.57;5.97;;;22.50;53.20;;;;;;5010463;28;20445;-69
2023/05/28 09:36:11;;;;;;;6.90;5.37;;;22.70;52.40;;;;;;5010821;28;20963;-68
2023/05/28 09:38:40;;;;;;;8.20;5.43;;;22.70;50.50;;;;;;5010648;28;21257;-69
2023/05/28 09:41:19;;;;;;;9.33;6.10;;;22.60;53.20;;;;;;5010780;28;20477;-68
2023/05/28 09:43:57;;;;;;;9.40;6.03;;;22.80;49.50;;;;;;5010590;28;20532;-68
2023/05/28 09:46:29;;;;;;;6.23;5.47;;;22.90;51.10;;;;;;5010561;28;20982;-68
2023/05/28 09:48:57;;;;;;;7.97;5.67;;;23.10;50.90;;;;;;5010613;28;20489;-68
2023/05/28 09:51:28;;;;;;;6.50;5.10;;;23.10;49.70;;;;;;5010083;28;20442;-68
2023/05/28 09:53:58;;;;;;;8.10;5.90;;;23.50;49.10;;;;;;5009623;28;21038;-68
2023/05/28 09:56:31;;;;;;;9.50;5.87;;;23.70;50.20;;;;;;5009914;28;20442;-68
2023/05/28 09:59:03;;;;;;;11.13;6.00;;;24.40;48.00;;;;;;5009715;28;20560;-68
2023/05/28 10:01:36;;;;;;;6.00;4.93;;;24.70;47.80;;;;;;5010065;28;20884;-68
2023/05/28 10:04:08;;;;;;;7.73;4.90;;;24.90;45.40;;;;;;5009614;28;20472;-68
2023/05/28 10:06:39;;;;;;;8.13;6.03;;;25.00;46.00;;;;;;5009822;28;20438;-68
2023/05/28 10:09:09;;;;;;;10.00;5.87;;;25.60;48.60;;;;;;5009718;28;20508;-69
2023/05/28 10:11:43;;;;;;;6.73;5.50;;;26.40;44.40;;;;;;5009782;28;20446;-67
2023/05/28 10:14:12;;;;;;;10.40;6.60;;;26.10;43.50;;;;;;5010052;28;20979;-68
2023/05/28 10:16:41;;;;;;;7.10;5.67;;;25.90;41.70;;;;;;5009770;28;20481;-68
2023/05/28 10:19:10;;;;;;;9.20;5.30;;;25.90;44.10;;;;;;5009880;28;20461;-68
2023/05/28 10:21:39;;;;;;;8.50;5.20;;;25.30;43.70;;;;;;5010155;28;20445;-69
2023/05/28 10:24:07;;;;;;;8.03;6.10;;;24.80;46.60;;;;;;5009641;28;20857;-69
2023/05/28 10:26:35;;;;;;;8.13;5.60;;;25.00;45.50;;;;;;5009919;28;21250;-67
2023/05/28 10:29:07;;;;;;;7.60;5.87;;;24.90;44.50;;;;;;5009753;28;21027;-69
2023/05/28 10:31:36;;;;;;;8.90;6.30;;;24.80;43.30;;;;;;5009720;28;20453;-68
2023/05/28 10:34:15;;;;;;;7.03;5.77;;;24.60;45.00;;;;;;5009579;28;20446;-69
2023/05/28 10:36:54;;;;;;;6.20;5.40;;;24.70;44.40;;;;;;5009432;28;20496;-69
2023/05/28 10:39:41;;;;;;;10.20;5.47;;;25.30;45.30;;;;;;5013029;28;20520;-69
2023/05/28 10:42:10;;;;;;;9.63;6.13;;;26.10;46.90;;;;;;5013036;28;20473;-68
2023/05/28 10:44:52;;;;;;;7.83;5.70;;;26.80;44.70;;;;;;5012979;28;20445;-68
2023/05/28 10:47:32;;;;;;;8.17;6.23;;;27.30;43.90;;;;;;5013039;28;20503;-69
2023/05/28 10:50:02;;;;;;;9.03;5.40;;;27.50;41.80;;;;;;5013197;28;20544;-69
2023/05/28 10:52:43;;;;;;;6.47;5.60;;;27.90;42.00;;;;;;5012623;28;20521;-69
2023/05/28 10:55:12;;;;;;;6.00;5.37;;;28.50;39.70;;;;;;5013045;28;20825;-69
2023/05/28 10:57:41;;;;;;;6.77;5.80;;;29.10;39.00;;;;;;5012767;28;20500;-69
2023/05/28 11:00:13;;;;;;;8.60;5.30;;;29.80;38.90;;;;;;5012744;28;20531;-69
2023/05/28 11:02:44;;;;;;;7.83;5.70;;;30.10;37.70;;;;;;5012308;28;20511;-69
2023/05/28 11:05:13;;;;;;;7.87;5.70;;;29.30;36.40;;;;;;5012661;28;20542;-68
2023/05/28 11:07:42;;;;;;;8.23;5.10;;;27.70;36.70;;;;;;5012428;28;20458;-68
2023/05/28 11:10:12;;;;;;;9.13;5.90;;;27.20;38.50;;;;;;5012944;28;20533;-68
2023/05/28 11:12:42;;;;;;;6.80;5.10;;;26.90;39.50;;;;;;5012305;28;20434;-69
2023/05/28 11:15:11;;;;;;;6.40;5.30;;;27.60;40.10;;;;;;5012496;28;20821;-69
2023/05/28 11:17:42;;;;;;;7.60;5.07;;;28.50;40.80;;;;;;5012304;28;20557;-69
2023/05/28 11:20:17;;;;;;;8.23;4.90;;;29.50;34.90;;;;;;5012264;28;20909;-68
2023/05/28 11:22:46;;;;;;;8.73;5.20;;;29.30;34.40;;;;;;5011999;28;20507;-69
2023/05/28 11:25:14;;;;;;;7.90;5.70;;;28.80;39.00;;;;;;5012328;28;20867;-69
2023/05/28 11:27:42;;;;;;;6.77;5.57;;;28.70;38.50;;;;;;5012366;28;20513;-69
2023/05/28 11:30:12;;;;;;;8.10;5.13;;;29.30;36.50;;;;;;5012955;28;20437;-69
2023/05/28 11:32:42;;;;;;;6.67;4.20;;;29.80;35.70;;;;;;5011802;28;21002;-68
2023/05/28 11:35:12;;;;;;;7.70;5.33;;;29.80;32.50;;;;;;5012256;28;20446;-68
2023/05/28 11:37:41;;;;;;;7.40;4.43;;;30.20;35.60;;;;;;5011948;28;20520;-69
2023/05/28 11:40:11;;;;;;;7.90;4.73;;;30.80;33.00;;;;;;5011869;28;20437;-68
2023/05/28 11:42:41;;;;;;;7.10;5.30;;;30.70;32.40;;;;;;5011649;28;20524;-68
2023/05/28 11:45:11;;;;;;;5.50;5.00;;;30.80;32.90;;;;;;5012112;28;20449;-68
2023/05/28 11:47:42;;;;;;;8.50;5.33;;;30.70;32.40;;;;;;5011602;28;20869;-68
2023/05/28 11:50:14;;;;;;;7.53;5.20;;;30.20;32.30;;;;;;5010985;28;20445;-69
2023/05/28 11:52:43;;;;;;;7.10;5.03;;;30.10;32.50;;;;;;5011581;28;20529;-68
2023/05/28 11:55:11;;;;;;;6.83;5.20;;;30.40;31.70;;;;;;5011564;28;20438;-68
2023/05/28 11:57:43;;;;;;;7.90;5.00;;;30.50;31.80;;;;;;5011628;28;20449;-68
2023/05/28 12:00:16;;;;;;;8.57;5.90;;;30.00;31.10;;;;;;5011929;28;20456;-68
2023/05/28 12:02:45;;;;;;;10.37;6.20;;;29.50;31.80;;;;;;5011193;28;20442;-68
2023/05/28 12:05:16;;;;;;;7.87;4.87;;;29.40;32.40;;;;;;5011609;28;20445;-68
2023/05/28 12:07:46;;;;;;;8.13;5.30;;;29.50;32.80;;;;;;5011415;28;20493;-67
2023/05/28 12:10:16;;;;;;;7.30;5.90;;;29.00;32.60;;;;;;5011284;28;20442;-68
2023/05/28 12:12:45;;;;;;;9.00;5.33;;;28.40;33.80;;;;;;5011129;28;20446;-68
2023/05/28 12:15:15;;;;;;;6.90;5.30;;;29.30;33.90;;;;;;5011396;28;20445;-68
2023/05/28 12:17:44;;;;;;;8.20;6.00;;;29.00;32.60;;;;;;5011232;28;20540;-68
2023/05/28 12:20:32;;;;;;;7.23;5.47;;;28.20;32.90;;;;;;5011301;28;20488;-68
2023/05/28 12:23:01;;;;;;;7.50;5.10;;;28.20;33.30;;;;;;5010621;28;21276;-68
2023/05/28 12:25:29;;;;;;;9.43;6.00;;;28.50;34.40;;;;;;5011360;28;20465;-69
2023/05/28 12:27:58;;;;;;;5.70;4.20;;;29.70;35.50;;;;;;5010893;28;20881;-69
2023/05/28 12:30:26;;;;;;;7.30;5.90;;;31.10;32.50;;;;;;5011245;28;20450;-69
2023/05/28 12:32:54;;;;;;;6.40;5.50;;;31.60;31.80;;;;;;5011136;28;20504;-69
2023/05/28 12:35:22;;;;;;;5.90;5.30;;;32.20;34.30;;;;;;5011415;28;20471;-69
2023/05/28 12:37:52;;;;;;;11.77;6.50;;;32.70;32.30;;;;;;5011431;28;20474;-69
2023/05/28 12:40:19;;;;;;;9.03;5.13;;;33.40;32.30;;;;;;5011595;28;20532;-68
2023/05/28 12:42:47;;;;;;;7.17;5.23;;;33.70;27.40;;;;;;5011055;28;20473;-68
2023/05/28 12:45:15;;;;;;;6.97;5.10;;;33.10;27.70;;;;;;5011145;28;20541;-69
2023/05/28 12:47:43;;;;;;;6.07;5.20;;;32.50;30.80;;;;;;5011027;28;20466;-69
2023/05/28 12:50:12;;;;;;;8.57;5.77;;;32.50;27.90;;;;;;5010846;28;20517;-68
2023/05/28 12:52:40;;;;;;;5.97;4.80;;;30.90;28.80;;;;;;5010462;28;20512;-68